EmailTwitter


Observations de surface / Québec / CYND

Régions: Québec | Canada | États-Unis | Europe | France | UK | Ailleurs
Station
Affichage
Infos & localisation pour CYND | Aide pour décoder les METARs

Observations prises le 2018-11-18 à 01H00 UTC à OTTAWA GATINEAU, QB (CYND)

Etat du ciel: quelques nuages.

Température: -5.0 Celsius

Point de rosée: -10.0 Celsius

Humidité relative: 68%

Facteur vent: -9.

Vents: Ouest-nord-ouest à 9 km/h ou 5 noeuds.

Pression au niveau moyen de la mer: 102.48 kilopascals.

Calage altimétrique: 102.44 kilopascals ou 30.25 pouces de mercure.

Visibilité horizontale: 15.00 milles terrestres ou 24.00 kilomètres.

Observation METAR:

CYND 180100Z 29005KT 15SM FEW038 M05/M10 A3025 RMK SC1 SC TR SLP248=